Time;durP1;ratioP1;P1;durP2;ratioP2;P2;SDS_P1;SDS_P2;PMS_P1;PMS_P2;Temp;Humidity;BMP_temperature;BMP_pressure;BME280_temperature;BME280_humidity;BME280_pressure;Samples;Min_cycle;Max_cycle;Signal;HPM_P1;HPM_P2
2021/12/20 00:02:10;;;;;;;1.85;1.52;;;-2.80;99.90;;;;;;5012479;28;20482;-75
2021/12/20 00:04:39;;;;;;;2.00;1.50;;;-2.80;99.90;;;;;;4994794;28;20054;-75
2021/12/20 00:07:06;;;;;;;2.10;1.20;;;-2.90;99.90;;;;;;5012873;28;20041;-76
2021/12/20 00:09:34;;;;;;;1.38;1.08;;;-2.90;99.90;;;;;;5012996;28;20418;-75
2021/12/20 00:12:02;;;;;;;3.45;1.40;;;-2.90;99.90;;;;;;5010848;28;20103;-76
2021/12/20 00:14:31;;;;;;;2.10;1.45;;;-2.90;99.90;;;;;;5012400;28;20066;-76
2021/12/20 00:16:58;;;;;;;3.40;1.33;;;-2.90;99.90;;;;;;5012482;28;20054;-76
2021/12/20 00:19:26;;;;;;;1.88;1.40;;;-2.90;99.90;;;;;;5012137;28;20068;-76
2021/12/20 00:21:54;;;;;;;1.50;1.40;;;-2.90;99.90;;;;;;4994977;28;20596;-76
2021/12/20 00:24:21;;;;;;;2.35;1.48;;;-2.90;99.90;;;;;;5012652;28;20120;-76
2021/12/20 00:26:48;;;;;;;2.25;1.60;;;-3.00;99.90;;;;;;5012652;28;20042;-75
2021/12/20 00:29:16;;;;;;;1.70;1.42;;;-3.00;99.90;;;;;;5010040;28;20577;-75
2021/12/20 00:31:45;;;;;;;2.40;1.77;;;-3.00;99.90;;;;;;5011785;28;20430;-75
2021/12/20 00:34:12;;;;;;;1.70;1.30;;;-3.00;99.90;;;;;;5012853;28;20050;-76
2021/12/20 00:36:39;;;;;;;2.20;1.33;;;-3.00;99.90;;;;;;4995025;28;20054;-75
2021/12/20 00:41:51;;;;;;;2.33;1.10;;;-3.10;99.90;;;;;;4990132;28;20042;-76
2021/12/20 00:44:19;;;;;;;1.83;1.63;;;-3.10;99.90;;;;;;4984122;28;20056;-75
2021/12/20 00:46:47;;;;;;;2.05;1.38;;;-3.10;99.90;;;;;;4992583;28;20101;-75
2021/12/20 00:49:15;;;;;;;1.58;0.98;;;-3.20;99.90;;;;;;4992884;28;20057;-75
2021/12/20 00:51:42;;;;;;;3.00;1.17;;;-3.20;99.90;;;;;;4974772;28;20109;-75
2021/12/20 00:54:09;;;;;;;1.20;1.10;;;-3.20;99.90;;;;;;4975659;28;20054;-75
2021/12/20 00:56:37;;;;;;;2.22;1.33;;;-3.30;99.90;;;;;;5002367;28;20100;-75
2021/12/20 00:59:05;;;;;;;2.55;1.05;;;-3.30;99.90;;;;;;4997211;28;20511;-75
2021/12/20 01:01:32;;;;;;;1.88;1.30;;;-3.30;99.90;;;;;;4994541;28;20045;-75
2021/12/20 01:04:01;;;;;;;1.38;1.17;;;-3.20;99.90;;;;;;4978982;28;20049;-75
2021/12/20 01:06:28;;;;;;;1.60;1.10;;;-3.30;99.90;;;;;;5010727;28;20425;-75
2021/12/20 01:08:56;;;;;;;1.10;1.00;;;-3.30;99.90;;;;;;5012168;28;20046;-75
2021/12/20 01:11:27;;;;;;;2.53;0.93;;;-3.30;99.90;;;;;;5011951;28;20425;-75
2021/12/20 01:13:57;;;;;;;0.90;0.80;;;-3.30;99.90;;;;;;5010486;28;20140;-75
2021/12/20 01:16:31;;;;;;;1.40;1.10;;;-3.40;99.90;;;;;;5010829;28;20525;-75
2021/12/20 01:19:00;;;;;;;1.25;0.82;;;-3.40;99.90;;;;;;5011351;28;20136;-75
2021/12/20 01:21:29;;;;;;;3.35;0.90;;;-3.50;99.90;;;;;;5012007;28;20046;-75
2021/12/20 01:23:57;;;;;;;1.20;1.00;;;-3.50;99.90;;;;;;4997880;28;20041;-75
2021/12/20 01:26:25;;;;;;;1.63;1.05;;;-3.50;99.90;;;;;;4983028;28;20078;-75
2021/12/20 01:28:53;;;;;;;1.70;0.85;;;-3.60;99.90;;;;;;4991379;28;20050;-75
2021/12/20 01:31:20;;;;;;;1.08;0.80;;;-3.60;99.90;;;;;;5004993;28;20544;-75
2021/12/20 01:33:47;;;;;;;0.80;0.80;;;-3.60;99.90;;;;;;5010470;28;20054;-75
2021/12/20 01:36:16;;;;;;;0.60;0.60;;;-3.70;99.90;;;;;;5011811;28;20135;-75
2021/12/20 01:38:43;;;;;;;1.23;0.80;;;-3.80;99.90;;;;;;5011925;28;20107;-74
2021/12/20 01:41:11;;;;;;;3.10;1.58;;;-3.80;99.90;;;;;;4993766;28;20148;-75
2021/12/20 01:43:38;;;;;;;4.35;0.90;;;-3.90;99.90;;;;;;5010249;28;20514;-75
2021/12/20 01:46:06;;;;;;;0.98;0.70;;;-3.90;99.90;;;;;;5008951;28;20143;-75
2021/12/20 01:48:36;;;;;;;1.40;0.70;;;-3.90;99.90;;;;;;4976571;28;20050;-76
2021/12/20 01:53:53;;;;;;;3.13;0.80;;;-4.00;99.90;;;;;;4995108;28;20049;-76
2021/12/20 01:56:20;;;;;;;2.65;0.95;;;-4.10;99.90;;;;;;5007031;28;20056;-75
2021/12/20 01:58:47;;;;;;;1.65;0.85;;;-4.20;99.90;;;;;;4993549;28;20049;-75
2021/12/20 02:01:22;;;;;;;2.28;1.63;;;-4.20;99.90;;;;;;5009466;28;20049;-75
2021/12/20 02:03:56;;;;;;;1.90;0.80;;;-4.20;99.90;;;;;;4974419;28;20152;-75
2021/12/20 02:06:29;;;;;;;1.88;0.90;;;-4.20;99.90;;;;;;4991539;28;20046;-74
2021/12/20 02:09:00;;;;;;;1.00;0.90;;;-4.20;99.90;;;;;;4975313;28;20056;-74
2021/12/20 02:11:28;;;;;;;1.92;0.60;;;-4.20;99.90;;;;;;4983304;28;20061;-76
2021/12/20 02:13:56;;;;;;;1.10;1.00;;;-4.30;99.90;;;;;;4963347;28;20038;-76
2021/12/20 02:16:24;;;;;;;0.68;0.68;;;-4.30;99.90;;;;;;4990501;28;20054;-75
2021/12/20 02:18:51;;;;;;;1.13;0.88;;;-4.20;99.90;;;;;;4987155;28;20038;-75
2021/12/20 02:21:20;;;;;;;1.42;1.00;;;-4.30;99.90;;;;;;5011062;28;20509;-76
2021/12/20 02:23:48;;;;;;;0.95;0.77;;;-4.30;99.90;;;;;;5011886;28;20136;-75
2021/12/20 02:26:18;;;;;;;2.40;0.73;;;-4.30;99.90;;;;;;4993201;28;20092;-76
2021/12/20 02:28:48;;;;;;;1.33;0.80;;;-4.30;99.90;;;;;;5009786;28;20557;-76
2021/12/20 02:39:40;;;;;;;3.40;1.17;;;-4.40;99.90;;;;;;5003672;28;20574;-77
2021/12/20 02:42:10;;;;;;;1.10;0.80;;;-4.50;99.90;;;;;;5011528;28;20052;-75
2021/12/20 02:44:37;;;;;;;4.38;1.10;;;-4.50;99.90;;;;;;4996173;28;20089;-76
2021/12/20 02:47:09;;;;;;;1.58;0.80;;;-4.50;99.90;;;;;;4993939;28;20046;-76
2021/12/20 02:49:36;;;;;;;3.53;0.85;;;-4.60;99.90;;;;;;5006707;28;20164;-76
2021/12/20 02:52:09;;;;;;;4.55;0.85;;;-4.60;99.90;;;;;;5009429;28;20053;-74
2021/12/20 02:54:37;;;;;;;1.52;1.30;;;-4.70;99.90;;;;;;5014553;28;20054;-76
2021/12/20 02:57:05;;;;;;;1.25;0.80;;;-4.70;99.90;;;;;;5014372;28;20482;-75
2021/12/20 02:59:32;;;;;;;4.97;0.60;;;-4.80;99.90;;;;;;5012414;28;20461;-75
2021/12/20 03:02:03;;;;;;;1.17;0.95;;;-4.90;99.90;;;;;;5010568;28;20054;-75
2021/12/20 03:04:31;;;;;;;2.17;0.90;;;-5.00;99.90;;;;;;4996704;28;20050;-75
2021/12/20 03:07:02;;;;;;;1.27;0.80;;;-5.00;99.90;;;;;;5012203;28;20478;-75
2021/12/20 03:09:36;;;;;;;2.20;1.13;;;-5.00;99.90;;;;;;5012521;28;20054;-75
2021/12/20 03:12:07;;;;;;;2.65;0.88;;;-5.00;99.90;;;;;;4990088;28;20109;-76
2021/12/20 03:14:38;;;;;;;2.45;1.20;;;-5.10;99.90;;;;;;5014039;28;20494;-76
2021/12/20 03:17:07;;;;;;;2.10;1.10;;;-5.10;99.90;;;;;;5014120;28;20046;-76
2021/12/20 03:19:34;;;;;;;1.52;1.20;;;-5.10;99.90;;;;;;5011741;28;20041;-76
2021/12/20 03:22:02;;;;;;;1.60;1.00;;;-5.10;99.90;;;;;;5014655;28;20062;-76
2021/12/20 03:24:31;;;;;;;3.25;0.80;;;-5.10;99.90;;;;;;4995273;28;20045;-76
2021/12/20 03:26:58;;;;;;;1.45;1.00;;;-5.10;99.90;;;;;;5011761;28;20069;-76
2021/12/20 03:29:26;;;;;;;2.17;0.77;;;-5.20;99.90;;;;;;4979571;28;20041;-75
2021/12/20 03:31:54;;;;;;;1.38;0.82;;;-5.30;99.90;;;;;;4993279;28;20058;-75
2021/12/20 03:34:21;;;;;;;2.10;0.70;;;-5.30;99.90;;;;;;5013250;28;20045;-75
2021/12/20 03:36:49;;;;;;;0.70;0.60;;;-5.40;99.90;;;;;;4995181;28;21648;-75
2021/12/20 03:39:16;;;;;;;2.45;0.60;;;-5.50;99.90;;;;;;5012702;28;20046;-75
2021/12/20 03:41:46;;;;;;;1.52;0.70;;;-5.50;99.90;;;;;;5012122;28;20461;-75
2021/12/20 03:44:13;;;;;;;1.48;0.90;;;-5.50;99.90;;;;;;5012171;28;20046;-75
2021/12/20 03:46:41;;;;;;;1.15;0.43;;;-5.60;99.90;;;;;;5013326;28;20066;-75
2021/12/20 03:49:09;;;;;;;1.15;0.82;;;-5.60;99.90;;;;;;4995816;28;20048;-76
2021/12/20 03:51:37;;;;;;;1.00;0.80;;;-5.70;99.90;;;;;;5010613;28;20569;-75
2021/12/20 03:54:06;;;;;;;3.28;0.70;;;-5.70;99.90;;;;;;5007944;28;20510;-74
2021/12/20 03:56:34;;;;;;;0.73;0.63;;;-5.70;99.90;;;;;;4993447;28;20100;-74
2021/12/20 03:59:03;;;;;;;1.02;0.70;;;-5.70;99.90;;;;;;4996688;28;20049;-74
2021/12/20 04:01:30;;;;;;;1.88;0.68;;;-5.70;99.90;;;;;;5010447;28;20058;-75
2021/12/20 04:04:00;;;;;;;2.13;1.30;;;-5.80;99.90;;;;;;5011554;28;20053;-74
2021/12/20 04:06:28;;;;;;;4.55;0.60;;;-5.80;99.90;;;;;;4989391;28;20141;-75
2021/12/20 04:08:56;;;;;;;0.75;0.60;;;-5.80;99.90;;;;;;5012952;28;20053;-79
2021/12/20 04:11:23;;;;;;;0.98;0.60;;;-5.90;99.90;;;;;;5015348;28;20050;-81
2021/12/20 04:13:51;;;;;;;0.70;0.60;;;-5.90;99.90;;;;;;5012705;28;20088;-81
2021/12/20 04:16:20;;;;;;;1.08;0.70;;;-6.00;99.90;;;;;;4994136;28;20054;-80
2021/12/20 04:18:47;;;;;;;1.58;0.80;;;-6.00;99.90;;;;;;5008298;28;20046;-83
2021/12/20 04:21:15;;;;;;;1.70;0.82;;;-6.00;99.90;;;;;;5006282;28;20057;-81
2021/12/20 04:23:43;;;;;;;4.07;1.02;;;-6.10;99.90;;;;;;5013443;28;20077;-82
2021/12/20 04:26:10;;;;;;;1.63;1.02;;;-6.10;99.90;;;;;;4993821;28;20076;-83
2021/12/20 04:28:38;;;;;;;1.92;0.98;;;-6.10;99.90;;;;;;4988487;28;20104;-82
2021/12/20 04:31:05;;;;;;;1.48;0.90;;;-6.10;99.90;;;;;;4994254;28;20092;-79
2021/12/20 04:33:35;;;;;;;1.60;0.60;;;-6.00;99.90;;;;;;4980392;28;20120;-80
2021/12/20 04:36:02;;;;;;;1.42;0.50;;;-6.00;99.90;;;;;;4996583;28;20053;-81
2021/12/20 04:38:31;;;;;;;0.88;0.70;;;-6.00;99.90;;;;;;5012811;28;20069;-80
2021/12/20 04:40:59;;;;;;;1.70;0.65;;;-6.10;99.90;;;;;;5011801;28;20418;-79
2021/12/20 04:43:26;;;;;;;1.60;0.60;;;-6.00;99.90;;;;;;5009718;28;20042;-80
2021/12/20 04:45:54;;;;;;;1.15;0.82;;;-6.10;99.90;;;;;;5011465;28;20045;-78
2021/12/20 04:48:22;;;;;;;2.80;0.90;;;-6.10;99.90;;;;;;4995706;28;20038;-79
2021/12/20 04:50:51;;;;;;;1.33;0.57;;;-6.10;99.90;;;;;;4996226;28;20536;-82
2021/12/20 04:53:19;;;;;;;4.38;2.22;;;-6.10;99.90;;;;;;5012410;28;20058;-77
2021/12/20 04:55:46;;;;;;;1.83;1.20;;;-6.10;99.90;;;;;;5009203;28;20096;-82
2021/12/20 04:58:15;;;;;;;2.05;0.82;;;-6.10;99.90;;;;;;5003441;28;20103;-76
2021/12/20 05:00:44;;;;;;;0.75;0.73;;;-6.10;99.90;;;;;;5007465;28;20060;-78
2021/12/20 05:03:11;;;;;;;1.20;0.90;;;-6.10;99.90;;;;;;5011143;28;20132;-80
2021/12/20 05:05:39;;;;;;;2.33;1.50;;;-6.20;99.90;;;;;;5011459;28;20042;-77
2021/12/20 05:08:10;;;;;;;0.73;0.73;;;-6.30;99.90;;;;;;5012267;28;20108;-78
2021/12/20 05:10:40;;;;;;;0.88;0.65;;;-6.30;99.90;;;;;;5011926;28;20058;-78
2021/12/20 05:13:11;;;;;;;1.17;0.40;;;-6.40;99.90;;;;;;5008421;28;20061;-77
2021/12/20 05:15:40;;;;;;;2.15;0.60;;;-6.40;99.90;;;;;;5016527;28;20068;-79
2021/12/20 05:18:09;;;;;;;0.60;0.60;;;-6.50;99.90;;;;;;5019524;28;20116;-78
2021/12/20 05:20:38;;;;;;;1.00;0.70;;;-6.50;99.90;;;;;;5020735;28;20056;-80
2021/12/20 05:23:07;;;;;;;2.28;0.70;;;-6.50;99.90;;;;;;5012376;28;20042;-79
2021/12/20 05:25:37;;;;;;;0.70;0.70;;;-6.50;99.90;;;;;;5008860;28;20058;-79
2021/12/20 05:28:05;;;;;;;1.10;0.98;;;-6.40;99.90;;;;;;4996346;28;20053;-78
2021/12/20 05:30:34;;;;;;;1.83;0.60;;;-6.30;99.90;;;;;;5019920;28;20569;-78
2021/12/20 05:33:02;;;;;;;3.63;0.70;;;-6.30;99.90;;;;;;5007803;28;20445;-78
2021/12/20 05:35:29;;;;;;;1.27;0.80;;;-6.30;99.90;;;;;;5013506;28;20050;-78
2021/12/20 05:37:58;;;;;;;1.67;1.10;;;-6.30;99.90;;;;;;5018327;28;20054;-78
2021/12/20 05:40:26;;;;;;;2.08;1.10;;;-6.40;99.90;;;;;;5013188;28;20042;-79
2021/12/20 05:42:55;;;;;;;1.65;0.80;;;-6.40;99.90;;;;;;5015923;28;20074;-77
2021/12/20 05:45:23;;;;;;;3.47;0.95;;;-6.40;99.90;;;;;;4990191;28;20085;-76
2021/12/20 05:47:51;;;;;;;2.40;0.82;;;-6.40;99.90;;;;;;4991432;28;20065;-75
2021/12/20 05:50:21;;;;;;;1.17;0.82;;;-6.40;99.90;;;;;;4991258;28;20544;-78
2021/12/20 05:52:49;;;;;;;1.13;0.60;;;-6.40;99.90;;;;;;4990054;28;20054;-76
2021/12/20 05:55:18;;;;;;;1.50;0.88;;;-6.40;99.90;;;;;;4991259;28;20047;-76
2021/12/20 05:57:46;;;;;;;2.08;0.90;;;-6.40;99.90;;;;;;5007489;28;20054;-76
2021/12/20 06:00:18;;;;;;;0.85;0.70;;;-6.40;99.90;;;;;;5010650;28;20041;-77
2021/12/20 06:02:50;;;;;;;0.68;0.47;;;-6.40;99.90;;;;;;5002505;28;20057;-78
2021/12/20 06:05:19;;;;;;;1.88;1.17;;;-6.50;99.90;;;;;;5014349;28;20095;-79
2021/12/20 06:07:47;;;;;;;2.60;0.82;;;-6.60;99.90;;;;;;5016588;28;20129;-77
2021/12/20 06:10:16;;;;;;;1.05;0.50;;;-6.70;99.90;;;;;;5018222;28;20505;-75
2021/12/20 06:12:45;;;;;;;2.50;0.70;;;-6.70;99.90;;;;;;5018128;28;20136;-76
2021/12/20 06:15:13;;;;;;;0.82;0.77;;;-6.80;99.90;;;;;;5019798;28;20047;-76
2021/12/20 06:17:42;;;;;;;1.10;0.68;;;-6.80;99.90;;;;;;5019163;28;20604;-78
2021/12/20 06:20:13;;;;;;;1.83;0.75;;;-6.80;99.90;;;;;;5016124;28;20054;-79
2021/12/20 06:22:41;;;;;;;1.25;1.15;;;-6.80;99.90;;;;;;5018553;28;20128;-78
2021/12/20 06:25:10;;;;;;;2.33;0.90;;;-6.80;99.90;;;;;;5020390;28;20053;-78
2021/12/20 06:27:37;;;;;;;2.75;0.82;;;-6.90;99.90;;;;;;4997823;28;20052;-78
2021/12/20 06:30:08;;;;;;;2.42;0.75;;;-6.90;99.90;;;;;;5015151;28;20041;-78
2021/12/20 06:32:36;;;;;;;1.70;1.00;;;-6.90;99.90;;;;;;4997070;28;20049;-79
2021/12/20 06:35:07;;;;;;;0.88;0.70;;;-6.90;99.90;;;;;;5010141;28;20061;-78
2021/12/20 06:37:34;;;;;;;1.13;0.70;;;-6.90;99.90;;;;;;5008737;28;20054;-79
2021/12/20 06:40:04;;;;;;;2.22;0.85;;;-6.80;99.90;;;;;;5009331;28;20065;-79
2021/12/20 06:42:31;;;;;;;1.40;0.73;;;-6.90;99.90;;;;;;5010209;28;20058;-78
2021/12/20 06:44:59;;;;;;;0.95;0.75;;;-6.90;99.90;;;;;;4978046;28;21086;-78
2021/12/20 06:47:26;;;;;;;1.48;0.80;;;-7.00;99.90;;;;;;5009884;28;20057;-79
2021/12/20 06:49:54;;;;;;;0.70;0.52;;;-6.90;99.90;;;;;;5010096;28;20128;-78
2021/12/20 06:52:22;;;;;;;0.60;0.50;;;-6.90;99.90;;;;;;4992000;28;20454;-78
2021/12/20 06:54:52;;;;;;;0.80;0.60;;;-7.00;99.90;;;;;;5008920;28;20050;-77
2021/12/20 06:57:21;;;;;;;1.58;0.70;;;-7.00;99.90;;;;;;5008943;28;20050;-77
2021/12/20 06:59:48;;;;;;;2.75;0.82;;;-7.00;99.90;;;;;;5010185;28;20141;-78
2021/12/20 07:02:16;;;;;;;1.50;0.50;;;-7.00;99.90;;;;;;5009306;28;20050;-79
2021/12/20 07:04:44;;;;;;;1.75;0.80;;;-7.00;99.90;;;;;;5010161;28;20057;-79
2021/12/20 07:07:11;;;;;;;3.85;1.10;;;-7.10;99.90;;;;;;5010354;28;20461;-79
2021/12/20 07:09:40;;;;;;;1.17;0.80;;;-7.10;99.90;;;;;;4992186;28;20503;-79
2021/12/20 07:12:09;;;;;;;1.10;0.95;;;-7.10;99.90;;;;;;5006786;28;20050;-78
2021/12/20 07:14:38;;;;;;;0.68;0.68;;;-7.10;99.90;;;;;;5009696;28;20074;-79
2021/12/20 07:17:06;;;;;;;2.45;0.60;;;-7.10;99.90;;;;;;5010298;28;20493;-77
2021/12/20 07:19:33;;;;;;;1.05;0.75;;;-7.00;99.90;;;;;;5004367;28;20062;-76
2021/12/20 07:22:01;;;;;;;2.47;1.38;;;-7.00;99.90;;;;;;5009351;28;20483;-77
2021/12/20 07:24:29;;;;;;;2.65;0.70;;;-7.00;99.90;;;;;;5005006;28;20418;-77
2021/12/20 07:26:57;;;;;;;2.20;0.75;;;-7.10;99.90;;;;;;5010105;28;20052;-76
2021/12/20 07:29:25;;;;;;;2.35;1.08;;;-7.10;99.90;;;;;;4992217;28;20096;-77
2021/12/20 07:31:52;;;;;;;2.47;0.70;;;-7.10;99.90;;;;;;5012037;28;20057;-76
2021/12/20 07:34:20;;;;;;;2.25;0.98;;;-7.10;99.90;;;;;;4995837;28;20141;-77
2021/12/20 07:36:48;;;;;;;1.42;0.93;;;-7.10;99.90;;;;;;5013181;28;20522;-76
2021/12/20 07:39:15;;;;;;;3.35;0.80;;;-7.10;99.90;;;;;;5013109;28;20133;-78
2021/12/20 07:41:44;;;;;;;2.38;1.00;;;-7.10;99.90;;;;;;4994787;28;20153;-77
2021/12/20 07:44:13;;;;;;;3.30;1.08;;;-7.10;99.90;;;;;;5012415;28;20136;-77
2021/12/20 07:46:40;;;;;;;1.92;1.08;;;-7.10;99.90;;;;;;4987456;28;20050;-77
2021/12/20 07:49:08;;;;;;;1.85;0.70;;;-7.10;99.90;;;;;;5013451;28;20505;-76
2021/12/20 07:51:35;;;;;;;0.93;0.93;;;-7.00;99.90;;;;;;5013381;28;20133;-77
2021/12/20 07:54:03;;;;;;;1.08;0.80;;;-7.10;99.90;;;;;;4994364;28;20433;-77
2021/12/20 07:56:30;;;;;;;3.95;0.95;;;-7.10;99.90;;;;;;4995809;28;20119;-79
2021/12/20 07:58:58;;;;;;;2.08;0.73;;;-7.10;99.90;;;;;;4993677;28;20049;-78
2021/12/20 08:01:27;;;;;;;1.95;1.00;;;-7.20;99.90;;;;;;4996353;28;20049;-77
2021/12/20 08:03:55;;;;;;;0.88;0.70;;;-7.20;99.90;;;;;;5012886;28;20054;-76
2021/12/20 08:06:22;;;;;;;1.73;0.77;;;-7.20;99.90;;;;;;5001068;28;20072;-78
2021/12/20 08:08:50;;;;;;;2.50;0.95;;;-7.10;99.90;;;;;;5012668;28;20054;-77
2021/12/20 08:11:17;;;;;;;0.70;0.70;;;-7.10;99.90;;;;;;5012228;28;20128;-77
2021/12/20 08:13:45;;;;;;;1.88;0.80;;;-7.00;99.90;;;;;;5012677;28;20053;-76
2021/12/20 08:16:13;;;;;;;1.42;1.00;;;-6.90;99.90;;;;;;4994589;28;20052;-77
2021/12/20 08:18:43;;;;;;;4.10;0.90;;;-6.90;99.90;;;;;;4995050;28;20560;-77
2021/12/20 08:21:13;;;;;;;1.23;1.13;;;-6.80;99.90;;;;;;5012355;28;20427;-77
2021/12/20 08:23:44;;;;;;;1.00;0.75;;;-6.80;99.90;;;;;;4994866;28;20117;-77
2021/12/20 08:26:12;;;;;;;1.83;1.55;;;-6.80;99.90;;;;;;5012393;28;20180;-78
2021/12/20 08:28:40;;;;;;;1.73;1.13;;;-6.80;99.90;;;;;;5012414;28;20076;-77
2021/12/20 08:31:09;;;;;;;1.73;1.42;;;-6.80;99.90;;;;;;5027478;28;20117;-77
2021/12/20 08:33:38;;;;;;;0.95;0.85;;;-6.80;99.90;;;;;;5010816;28;20080;-78
2021/12/20 08:36:12;;;;;;;1.50;0.75;;;-6.80;99.90;;;;;;4996805;28;20061;-79
2021/12/20 08:38:40;;;;;;;5.95;1.60;;;-6.70;99.90;;;;;;4991085;28;20042;-79
2021/12/20 08:41:09;;;;;;;1.08;0.65;;;-6.80;99.90;;;;;;4978364;28;20057;-80
2021/12/20 08:43:37;;;;;;;1.52;0.60;;;-6.70;99.90;;;;;;5011703;28;20132;-78
2021/12/20 08:46:04;;;;;;;1.15;0.82;;;-6.80;99.90;;;;;;5011773;28;20046;-79
2021/12/20 08:48:32;;;;;;;0.77;0.60;;;-6.80;99.90;;;;;;5017592;28;20058;-80
2021/12/20 08:51:01;;;;;;;3.25;0.70;;;-6.80;99.90;;;;;;5004845;28;20104;-79
2021/12/20 08:53:30;;;;;;;1.17;0.82;;;-6.70;99.90;;;;;;5009051;28;20537;-79
2021/12/20 08:55:58;;;;;;;1.83;0.90;;;-6.50;99.90;;;;;;5009512;28;20153;-78
2021/12/20 08:58:26;;;;;;;1.98;1.10;;;-6.50;99.90;;;;;;4990944;28;20053;-80
2021/12/20 09:00:55;;;;;;;1.45;0.90;;;-6.50;99.90;;;;;;5011128;28;20046;-79
2021/12/20 09:03:23;;;;;;;0.88;0.80;;;-6.40;99.90;;;;;;5010989;28;20510;-79
2021/12/20 09:05:51;;;;;;;2.47;0.93;;;-6.30;99.90;;;;;;5010522;28;20050;-78
2021/12/20 09:08:20;;;;;;;1.63;1.05;;;-6.30;99.90;;;;;;5011155;28;20080;-82
2021/12/20 09:10:49;;;;;;;1.52;0.82;;;-6.30;99.90;;;;;;5012201;28;20693;-80
2021/12/20 09:13:20;;;;;;;2.55;2.10;;;-6.40;99.90;;;;;;5011595;28;20060;-79
2021/12/20 09:15:51;;;;;;;7.15;2.30;;;-6.40;99.90;;;;;;5009954;28;20137;-79
2021/12/20 09:18:25;;;;;;;1.98;1.20;;;-6.50;99.90;;;;;;4991252;28;20429;-79
2021/12/20 09:20:53;;;;;;;6.25;1.58;;;-6.60;99.90;;;;;;5018682;28;20054;-82
2021/12/20 09:23:20;;;;;;;4.70;1.70;;;-6.60;99.90;;;;;;4993155;28;20049;-80
2021/12/20 09:25:49;;;;;;;2.38;1.38;;;-6.60;99.90;;;;;;5011341;28;20073;-81
2021/12/20 09:28:17;;;;;;;2.80;1.45;;;-6.40;99.90;;;;;;5009832;28;20099;-78
2021/12/20 09:30:47;;;;;;;4.40;1.55;;;-6.30;99.90;;;;;;5010925;28;20128;-81
2021/12/20 09:33:15;;;;;;;4.20;1.85;;;-6.20;99.90;;;;;;5011269;28;20144;-79
2021/12/20 09:35:43;;;;;;;2.10;1.73;;;-6.20;99.90;;;;;;5011260;28;20056;-80
2021/12/20 09:38:17;;;;;;;3.33;1.55;;;-6.10;99.90;;;;;;5011004;28;20050;-79
2021/12/20 09:41:13;;;;;;;3.05;1.48;;;-6.00;99.90;;;;;;4993669;28;20140;-79
2021/12/20 09:43:46;;;;;;;5.72;1.70;;;-5.90;99.90;;;;;;4993345;28;20062;-79
2021/12/20 09:46:16;;;;;;;4.95;2.20;;;-5.90;99.90;;;;;;4993305;28;20054;-79
2021/12/20 09:48:46;;;;;;;2.70;1.55;;;-6.00;99.90;;;;;;5009244;28;20559;-80
2021/12/20 09:51:15;;;;;;;5.53;2.05;;;-6.00;99.90;;;;;;5002888;28;20050;-79
2021/12/20 09:53:42;;;;;;;3.10;1.95;;;-6.10;99.90;;;;;;4990842;28;20054;-79
2021/12/20 09:56:11;;;;;;;6.20;1.80;;;-6.10;99.90;;;;;;4973348;28;20042;-78
2021/12/20 09:58:41;;;;;;;5.63;1.90;;;-6.20;99.90;;;;;;5000004;28;20124;-80
2021/12/20 10:01:12;;;;;;;6.38;1.67;;;-6.30;99.90;;;;;;4993195;28;20094;-79
2021/12/20 10:03:44;;;;;;;5.13;1.50;;;-6.30;99.90;;;;;;5010906;28;20142;-77
2021/12/20 10:06:11;;;;;;;2.95;1.88;;;-6.40;99.90;;;;;;5010564;28;20058;-78
2021/12/20 10:08:49;;;;;;;3.10;1.90;;;-6.40;99.90;;;;;;5010639;28;20050;-78
2021/12/20 10:11:22;;;;;;;4.53;1.45;;;-6.40;99.90;;;;;;5010468;28;20090;-78
2021/12/20 10:14:07;;;;;;;2.30;2.03;;;-6.50;99.90;;;;;;5010724;28;20042;-78
2021/12/20 10:16:36;;;;;;;7.35;2.40;;;-6.50;99.90;;;;;;4990660;28;20045;-79
2021/12/20 10:19:05;;;;;;;5.35;2.72;;;-6.50;99.90;;;;;;5010669;28;20060;-78
2021/12/20 10:21:38;;;;;;;5.13;2.63;;;-6.50;99.90;;;;;;4994400;28;20062;-78
2021/12/20 10:24:07;;;;;;;9.40;3.40;;;-6.40;99.90;;;;;;4991508;28;20050;-79
2021/12/20 10:26:45;;;;;;;6.20;3.88;;;-6.30;99.90;;;;;;4990479;28;20465;-78
2021/12/20 10:29:21;;;;;;;4.20;2.80;;;-6.20;99.90;;;;;;4985069;28;20046;-79
2021/12/20 10:31:50;;;;;;;3.88;2.10;;;-6.00;99.90;;;;;;4989029;28;20054;-82
2021/12/20 10:34:19;;;;;;;3.38;2.20;;;-5.90;99.90;;;;;;4974578;28;20054;-79
2021/12/20 10:36:55;;;;;;;7.85;2.15;;;-5.80;99.90;;;;;;5004023;28;20469;-80
2021/12/20 10:39:37;;;;;;;3.78;2.33;;;-5.70;99.90;;;;;;4991531;28;20062;-81
2021/12/20 10:42:18;;;;;;;8.65;2.28;;;-5.50;99.90;;;;;;4995240;28;20524;-81
2021/12/20 10:45:09;;;;;;;3.08;1.92;;;-5.50;99.90;;;;;;4999551;28;20058;-79
2021/12/20 10:47:37;;;;;;;4.13;2.22;;;-5.50;99.90;;;;;;5007225;28;20050;-79
2021/12/20 10:50:26;;;;;;;4.60;2.10;;;-5.60;99.90;;;;;;5008033;28;20053;-80
2021/12/20 10:53:11;;;;;;;3.65;1.73;;;-5.50;99.90;;;;;;5000359;28;20152;-80
2021/12/20 10:55:45;;;;;;;2.17;1.63;;;-5.50;99.90;;;;;;5007985;28;20058;-80
2021/12/20 10:58:34;;;;;;;4.05;1.50;;;-5.50;99.90;;;;;;5002183;28;20058;-80
2021/12/20 11:01:15;;;;;;;11.80;2.83;;;-5.50;99.90;;;;;;4987863;28;20104;-78
2021/12/20 11:03:44;;;;;;;3.08;2.10;;;-5.50;99.90;;;;;;4989696;28;20095;-80
2021/12/20 11:06:40;;;;;;;4.18;1.83;;;-5.50;99.90;;;;;;5006060;28;20136;-80
2021/12/20 11:09:15;;;;;;;3.17;2.00;;;-5.60;99.90;;;;;;4994245;28;20058;-76
2021/12/20 11:11:50;;;;;;;12.13;2.22;;;-5.60;99.90;;;;;;5009135;28;20062;-81
2021/12/20 11:14:22;;;;;;;8.35;2.40;;;-5.70;99.90;;;;;;4993708;28;20136;-78
2021/12/20 11:16:52;;;;;;;5.57;1.98;;;-5.80;99.90;;;;;;4992101;28;20049;-79
2021/12/20 11:19:24;;;;;;;6.93;2.63;;;-5.80;99.90;;;;;;4976127;28;20054;-78
2021/12/20 11:22:05;;;;;;;9.70;2.60;;;-5.90;99.90;;;;;;5010664;28;20116;-80
2021/12/20 11:24:57;;;;;;;10.65;2.72;;;-5.90;99.90;;;;;;5010172;28;20572;-79
2021/12/20 11:27:38;;;;;;;6.60;2.92;;;-6.00;99.90;;;;;;5002112;28;20422;-81
2021/12/20 11:30:12;;;;;;;6.47;2.33;;;-6.10;99.90;;;;;;5009689;28;20042;-80
2021/12/20 11:32:40;;;;;;;8.43;2.80;;;-6.30;99.90;;;;;;5010692;28;20053;-80
2021/12/20 11:35:09;;;;;;;3.15;2.22;;;-6.40;99.90;;;;;;5010289;28;20053;-81
2021/12/20 11:37:36;;;;;;;3.17;2.20;;;-6.60;99.90;;;;;;4992285;28;20046;-82
2021/12/20 11:40:09;;;;;;;6.20;2.75;;;-6.80;99.90;;;;;;5011079;28;20077;-80
2021/12/20 11:42:37;;;;;;;4.65;3.33;;;-6.90;99.90;;;;;;5009492;28;20053;-81
2021/12/20 11:45:15;;;;;;;4.38;2.83;;;-7.00;99.90;;;;;;4992895;28;20057;-81
2021/12/20 11:47:51;;;;;;;4.80;2.85;;;-7.10;99.90;;;;;;4991216;28;20061;-81
2021/12/20 11:50:23;;;;;;;4.65;2.80;;;-7.10;99.90;;;;;;5010111;28;20059;-80
2021/12/20 11:52:52;;;;;;;5.28;2.20;;;-7.10;99.90;;;;;;4998755;28;20061;-80
2021/12/20 11:55:23;;;;;;;7.25;3.15;;;-7.10;99.90;;;;;;5009892;28;20104;-80
2021/12/20 11:57:51;;;;;;;6.93;2.63;;;-7.20;99.90;;;;;;5009278;28;20508;-81
2021/12/20 12:00:34;;;;;;;5.88;2.50;;;-7.30;99.90;;;;;;5008644;28;20100;-81
2021/12/20 12:03:06;;;;;;;5.80;2.97;;;-7.30;99.90;;;;;;5004200;28;20164;-78
2021/12/20 12:05:42;;;;;;;10.43;3.60;;;-7.40;99.90;;;;;;4974990;28;20304;-79
2021/12/20 12:08:39;;;;;;;5.72;2.55;;;-7.50;99.90;;;;;;5011104;28;20105;-79
2021/12/20 12:11:30;;;;;;;7.38;2.35;;;-7.60;99.90;;;;;;4944665;28;20539;-87
2021/12/20 12:14:33;;;;;;;5.60;2.25;;;-7.60;99.90;;;;;;4988840;28;20135;-84
2021/12/20 12:17:06;;;;;;;4.15;2.42;;;-7.60;99.90;;;;;;5010489;28;20045;-83
2021/12/20 12:19:51;;;;;;;3.47;2.55;;;-7.70;99.90;;;;;;5009840;28;20049;-83
2021/12/20 12:22:37;;;;;;;3.30;2.00;;;-7.70;99.90;;;;;;5010159;28;20140;-87
2021/12/20 12:25:09;;;;;;;7.47;2.95;;;-7.70;99.90;;;;;;4989840;28;20145;-85
2021/12/20 12:27:40;;;;;;;7.90;3.40;;;-7.70;99.90;;;;;;5002926;28;20080;-87
2021/12/20 12:30:37;;;;;;;9.30;3.40;;;-7.80;99.90;;;;;;5009775;28;20145;-87
2021/12/20 12:33:27;;;;;;;6.40;2.95;;;-7.80;99.90;;;;;;5005992;28;20056;-85
2021/12/20 12:36:23;;;;;;;6.78;3.28;;;-7.90;99.90;;;;;;5010514;28;20056;-85
2021/12/20 12:38:57;;;;;;;8.55;3.72;;;-7.90;99.90;;;;;;5001207;28;20564;-86
2021/12/20 12:41:28;;;;;;;10.13;3.47;;;-7.90;99.90;;;;;;5008150;28;20193;-88
2021/12/20 12:44:08;;;;;;;8.35;3.80;;;-7.90;99.90;;;;;;5010028;28;20050;-89
2021/12/20 12:47:13;;;;;;;8.27;3.42;;;-7.90;99.90;;;;;;5008968;28;20133;-89
2021/12/20 12:49:56;;;;;;;9.98;4.47;;;-7.90;99.90;;;;;;5010663;28;20073;-90
2021/12/20 12:52:39;;;;;;;11.23;3.53;;;-7.80;99.90;;;;;;5005751;28;20410;-79
2021/12/20 12:55:29;;;;;;;9.02;4.18;;;-7.80;99.90;;;;;;5008585;28;20502;-81
2021/12/20 12:57:56;;;;;;;6.82;3.67;;;-7.80;99.90;;;;;;5023757;28;20911;-81
2021/12/20 13:00:35;;;;;;;4.97;3.05;;;-7.90;99.90;;;;;;5027459;28;20057;-78
2021/12/20 13:03:15;;;;;;;6.28;3.00;;;-7.90;99.90;;;;;;5006687;28;20054;-81
2021/12/20 13:05:45;;;;;;;6.72;3.65;;;-7.90;99.90;;;;;;4989027;28;20144;-80
2021/12/20 13:08:18;;;;;;;6.15;3.58;;;-7.90;99.90;;;;;;4992548;28;20399;-80
2021/12/20 13:10:51;;;;;;;10.27;5.03;;;-7.90;99.90;;;;;;4991593;28;20159;-83
2021/12/20 13:13:52;;;;;;;;;;;-8.00;99.90;;;;;;5010119;28;20053;-80
2021/12/20 13:16:25;;;;;;;6.65;3.05;;;-8.00;99.90;;;;;;4989641;28;19932;-82
2021/12/20 13:18:58;;;;;;;6.82;3.13;;;-8.00;99.90;;;;;;4987772;28;20066;-80
2021/12/20 13:21:48;;;;;;;;;;;-8.10;99.90;;;;;;5006247;28;20090;-83